sensor_id;sensor_type;location;lat;lon;timestamp;P1;durP1;ratioP1;P2;durP2;ratioP2
18520;SDS011;9390;51.244;6.982;2023-02-28T00:00:43;17.08;;;6.05;;
18520;SDS011;9390;51.244;6.982;2023-02-28T00:03:15;16.40;;;7.38;;
18520;SDS011;9390;51.244;6.982;2023-02-28T00:05:47;13.07;;;5.13;;
18520;SDS011;9390;51.244;6.982;2023-02-28T00:08:18;12.13;;;4.80;;
18520;SDS011;9390;51.244;6.982;2023-02-28T00:10:49;14.48;;;4.53;;
18520;SDS011;9390;51.244;6.982;2023-02-28T00:13:21;9.30;;;4.18;;
18520;SDS011;9390;51.244;6.982;2023-02-28T00:16:01;12.45;;;4.95;;
18520;SDS011;9390;51.244;6.982;2023-02-28T00:18:33;9.73;;;4.45;;
18520;SDS011;9390;51.244;6.982;2023-02-28T00:21:04;10.52;;;4.78;;
18520;SDS011;9390;51.244;6.982;2023-02-28T00:23:36;10.60;;;4.78;;
18520;SDS011;9390;51.244;6.982;2023-02-28T00:26:08;11.73;;;4.45;;
18520;SDS011;9390;51.244;6.982;2023-02-28T00:28:39;12.48;;;4.97;;
18520;SDS011;9390;51.244;6.982;2023-02-28T00:31:12;10.90;;;5.10;;
18520;SDS011;9390;51.244;6.982;2023-02-28T00:33:43;10.77;;;5.32;;
18520;SDS011;9390;51.244;6.982;2023-02-28T00:36:15;8.35;;;4.45;;
18520;SDS011;9390;51.244;6.982;2023-02-28T00:38:46;12.20;;;5.00;;
18520;SDS011;9390;51.244;6.982;2023-02-28T00:41:18;11.10;;;4.60;;
18520;SDS011;9390;51.244;6.982;2023-02-28T00:43:49;12.63;;;4.68;;
18520;SDS011;9390;51.244;6.982;2023-02-28T00:46:22;11.73;;;4.72;;
18520;SDS011;9390;51.244;6.982;2023-02-28T00:48:53;12.68;;;4.55;;
18520;SDS011;9390;51.244;6.982;2023-02-28T00:51:25;8.05;;;4.55;;
18520;SDS011;9390;51.244;6.982;2023-02-28T00:53:56;9.65;;;4.88;;
18520;SDS011;9390;51.244;6.982;2023-02-28T00:56:28;9.05;;;4.70;;
18520;SDS011;9390;51.244;6.982;2023-02-28T00:58:59;12.88;;;5.38;;
18520;SDS011;9390;51.244;6.982;2023-02-28T01:01:32;13.07;;;5.40;;
18520;SDS011;9390;51.244;6.982;2023-02-28T01:04:03;13.88;;;5.18;;
18520;SDS011;9390;51.244;6.982;2023-02-28T01:06:34;12.43;;;5.80;;
18520;SDS011;9390;51.244;6.982;2023-02-28T01:09:07;15.43;;;5.80;;
18520;SDS011;9390;51.244;6.982;2023-02-28T01:11:39;11.23;;;5.28;;
18520;SDS011;9390;51.244;6.982;2023-02-28T01:14:14;10.13;;;5.40;;
18520;SDS011;9390;51.244;6.982;2023-02-28T01:16:48;11.80;;;5.78;;
18520;SDS011;9390;51.244;6.982;2023-02-28T01:19:19;11.02;;;5.55;;
18520;SDS011;9390;51.244;6.982;2023-02-28T01:21:50;13.60;;;5.25;;
18520;SDS011;9390;51.244;6.982;2023-02-28T01:24:22;10.05;;;5.20;;
18520;SDS011;9390;51.244;6.982;2023-02-28T01:26:53;15.73;;;6.20;;
18520;SDS011;9390;51.244;6.982;2023-02-28T01:29:24;12.27;;;6.30;;
18520;SDS011;9390;51.244;6.982;2023-02-28T01:31:57;20.02;;;8.05;;
18520;SDS011;9390;51.244;6.982;2023-02-28T01:34:30;16.13;;;6.80;;
18520;SDS011;9390;51.244;6.982;2023-02-28T01:37:01;18.75;;;7.20;;
18520;SDS011;9390;51.244;6.982;2023-02-28T01:39:33;23.13;;;8.18;;
18520;SDS011;9390;51.244;6.982;2023-02-28T01:42:04;24.50;;;8.45;;
18520;SDS011;9390;51.244;6.982;2023-02-28T01:44:55;12.10;;;6.43;;
18520;SDS011;9390;51.244;6.982;2023-02-28T01:47:32;15.48;;;6.10;;
18520;SDS011;9390;51.244;6.982;2023-02-28T01:50:06;12.57;;;6.55;;
18520;SDS011;9390;51.244;6.982;2023-02-28T01:52:39;14.70;;;5.63;;
18520;SDS011;9390;51.244;6.982;2023-02-28T01:55:11;18.25;;;6.68;;
18520;SDS011;9390;51.244;6.982;2023-02-28T01:57:45;20.27;;;8.00;;
18520;SDS011;9390;51.244;6.982;2023-02-28T02:00:21;17.27;;;9.00;;
18520;SDS011;9390;51.244;6.982;2023-02-28T02:02:59;24.35;;;9.75;;
18520;SDS011;9390;51.244;6.982;2023-02-28T02:05:32;14.77;;;6.82;;
18520;SDS011;9390;51.244;6.982;2023-02-28T02:08:05;15.77;;;7.30;;
18520;SDS011;9390;51.244;6.982;2023-02-28T02:10:39;14.02;;;6.00;;
18520;SDS011;9390;51.244;6.982;2023-02-28T02:16:19;14.48;;;6.53;;
18520;SDS011;9390;51.244;6.982;2023-02-28T02:18:59;18.35;;;6.40;;
18520;SDS011;9390;51.244;6.982;2023-02-28T02:24:40;11.23;;;6.30;;
18520;SDS011;9390;51.244;6.982;2023-02-28T02:27:27;14.05;;;6.43;;
18520;SDS011;9390;51.244;6.982;2023-02-28T02:30:15;12.43;;;6.75;;
18520;SDS011;9390;51.244;6.982;2023-02-28T02:33:02;13.25;;;6.40;;
18520;SDS011;9390;51.244;6.982;2023-02-28T02:35:40;12.45;;;6.32;;
18520;SDS011;9390;51.244;6.982;2023-02-28T02:38:15;12.15;;;6.57;;
18520;SDS011;9390;51.244;6.982;2023-02-28T02:40:53;13.80;;;5.90;;
18520;SDS011;9390;51.244;6.982;2023-02-28T02:43:28;12.73;;;6.03;;
18520;SDS011;9390;51.244;6.982;2023-02-28T02:46:04;12.95;;;6.30;;
18520;SDS011;9390;51.244;6.982;2023-02-28T02:48:37;15.15;;;6.47;;
18520;SDS011;9390;51.244;6.982;2023-02-28T02:51:12;16.98;;;6.30;;
18520;SDS011;9390;51.244;6.982;2023-02-28T02:53:47;17.05;;;6.80;;
18520;SDS011;9390;51.244;6.982;2023-02-28T02:56:21;16.02;;;7.28;;
18520;SDS011;9390;51.244;6.982;2023-02-28T02:58:56;20.85;;;7.47;;
18520;SDS011;9390;51.244;6.982;2023-02-28T03:01:30;12.65;;;6.40;;
18520;SDS011;9390;51.244;6.982;2023-02-28T03:04:03;13.18;;;6.80;;
18520;SDS011;9390;51.244;6.982;2023-02-28T03:06:38;16.27;;;6.70;;
18520;SDS011;9390;51.244;6.982;2023-02-28T03:09:10;17.65;;;7.22;;
18520;SDS011;9390;51.244;6.982;2023-02-28T03:11:41;15.43;;;8.05;;
18520;SDS011;9390;51.244;6.982;2023-02-28T03:14:19;16.35;;;7.07;;
18520;SDS011;9390;51.244;6.982;2023-02-28T03:17:00;14.10;;;6.95;;
18520;SDS011;9390;51.244;6.982;2023-02-28T03:19:44;18.40;;;8.43;;
18520;SDS011;9390;51.244;6.982;2023-02-28T03:22:33;19.83;;;8.02;;
18520;SDS011;9390;51.244;6.982;2023-02-28T03:25:12;19.10;;;7.93;;
18520;SDS011;9390;51.244;6.982;2023-02-28T03:27:52;17.80;;;7.85;;
18520;SDS011;9390;51.244;6.982;2023-02-28T03:30:29;12.32;;;5.80;;
18520;SDS011;9390;51.244;6.982;2023-02-28T03:33:06;13.23;;;5.40;;
18520;SDS011;9390;51.244;6.982;2023-02-28T03:35:40;14.25;;;5.53;;
18520;SDS011;9390;51.244;6.982;2023-02-28T03:38:17;12.32;;;5.82;;
18520;SDS011;9390;51.244;6.982;2023-02-28T03:40:51;10.95;;;5.25;;
18520;SDS011;9390;51.244;6.982;2023-02-28T03:43:27;12.07;;;5.18;;
18520;SDS011;9390;51.244;6.982;2023-02-28T03:46:01;13.68;;;5.55;;
18520;SDS011;9390;51.244;6.982;2023-02-28T03:48:37;14.82;;;5.75;;
18520;SDS011;9390;51.244;6.982;2023-02-28T03:51:10;10.23;;;5.20;;
18520;SDS011;9390;51.244;6.982;2023-02-28T03:53:47;12.80;;;5.85;;
18520;SDS011;9390;51.244;6.982;2023-02-28T03:56:23;14.02;;;5.32;;
18520;SDS011;9390;51.244;6.982;2023-02-28T03:59:04;10.23;;;5.32;;
18520;SDS011;9390;51.244;6.982;2023-02-28T04:01:38;11.27;;;5.15;;
18520;SDS011;9390;51.244;6.982;2023-02-28T04:04:11;10.02;;;4.50;;
18520;SDS011;9390;51.244;6.982;2023-02-28T04:06:44;11.10;;;4.95;;
18520;SDS011;9390;51.244;6.982;2023-02-28T04:09:17;10.88;;;5.63;;
18520;SDS011;9390;51.244;6.982;2023-02-28T04:11:49;7.68;;;4.32;;
18520;SDS011;9390;51.244;6.982;2023-02-28T04:14:22;11.63;;;4.75;;
18520;SDS011;9390;51.244;6.982;2023-02-28T04:16:54;11.48;;;4.70;;
18520;SDS011;9390;51.244;6.982;2023-02-28T04:19:25;10.27;;;4.72;;
18520;SDS011;9390;51.244;6.982;2023-02-28T04:21:57;9.57;;;4.88;;
18520;SDS011;9390;51.244;6.982;2023-02-28T04:24:29;17.10;;;5.90;;
18520;SDS011;9390;51.244;6.982;2023-02-28T04:27:01;12.68;;;5.22;;
18520;SDS011;9390;51.244;6.982;2023-02-28T04:29:32;14.60;;;5.65;;
18520;SDS011;9390;51.244;6.982;2023-02-28T04:32:04;15.30;;;5.13;;
18520;SDS011;9390;51.244;6.982;2023-02-28T04:34:35;9.82;;;4.82;;
18520;SDS011;9390;51.244;6.982;2023-02-28T04:37:07;10.25;;;4.75;;
18520;SDS011;9390;51.244;6.982;2023-02-28T04:39:40;11.57;;;4.55;;
18520;SDS011;9390;51.244;6.982;2023-02-28T04:42:12;8.38;;;4.00;;
18520;SDS011;9390;51.244;6.982;2023-02-28T04:44:44;10.23;;;4.60;;
18520;SDS011;9390;51.244;6.982;2023-02-28T04:47:17;15.60;;;4.78;;
18520;SDS011;9390;51.244;6.982;2023-02-28T04:49:48;9.05;;;4.47;;
18520;SDS011;9390;51.244;6.982;2023-02-28T04:52:19;9.80;;;4.38;;
18520;SDS011;9390;51.244;6.982;2023-02-28T04:54:55;8.73;;;4.43;;
18520;SDS011;9390;51.244;6.982;2023-02-28T04:57:26;7.90;;;4.40;;
18520;SDS011;9390;51.244;6.982;2023-02-28T04:59:58;10.52;;;5.00;;
18520;SDS011;9390;51.244;6.982;2023-02-28T05:02:29;9.45;;;4.63;;
18520;SDS011;9390;51.244;6.982;2023-02-28T05:05:01;12.90;;;4.65;;
18520;SDS011;9390;51.244;6.982;2023-02-28T05:07:32;8.82;;;4.30;;
18520;SDS011;9390;51.244;6.982;2023-02-28T05:10:05;9.65;;;4.05;;
18520;SDS011;9390;51.244;6.982;2023-02-28T05:12:37;9.88;;;4.53;;
18520;SDS011;9390;51.244;6.982;2023-02-28T05:15:09;7.88;;;3.92;;
18520;SDS011;9390;51.244;6.982;2023-02-28T05:17:43;14.05;;;4.22;;
18520;SDS011;9390;51.244;6.982;2023-02-28T05:20:15;14.30;;;4.38;;
18520;SDS011;9390;51.244;6.982;2023-02-28T05:22:47;11.30;;;4.07;;
18520;SDS011;9390;51.244;6.982;2023-02-28T05:25:21;12.48;;;5.50;;
18520;SDS011;9390;51.244;6.982;2023-02-28T05:27:52;8.63;;;4.15;;
18520;SDS011;9390;51.244;6.982;2023-02-28T05:30:23;11.93;;;4.78;;
18520;SDS011;9390;51.244;6.982;2023-02-28T05:32:55;17.20;;;6.50;;
18520;SDS011;9390;51.244;6.982;2023-02-28T05:35:26;13.98;;;7.78;;
18520;SDS011;9390;51.244;6.982;2023-02-28T05:37:58;13.98;;;5.75;;
18520;SDS011;9390;51.244;6.982;2023-02-28T05:40:30;12.93;;;5.10;;
18520;SDS011;9390;51.244;6.982;2023-02-28T05:43:02;13.02;;;5.30;;
18520;SDS011;9390;51.244;6.982;2023-02-28T05:45:33;8.95;;;4.35;;
18520;SDS011;9390;51.244;6.982;2023-02-28T05:48:05;13.40;;;4.88;;
18520;SDS011;9390;51.244;6.982;2023-02-28T05:50:36;11.93;;;5.72;;
18520;SDS011;9390;51.244;6.982;2023-02-28T05:53:08;15.55;;;6.10;;
18520;SDS011;9390;51.244;6.982;2023-02-28T05:55:41;12.75;;;5.72;;
18520;SDS011;9390;51.244;6.982;2023-02-28T05:58:13;8.48;;;4.68;;
18520;SDS011;9390;51.244;6.982;2023-02-28T06:00:44;10.05;;;5.05;;
18520;SDS011;9390;51.244;6.982;2023-02-28T06:03:16;10.60;;;4.60;;
18520;SDS011;9390;51.244;6.982;2023-02-28T06:05:47;15.07;;;4.72;;
18520;SDS011;9390;51.244;6.982;2023-02-28T06:08:20;11.27;;;4.72;;
18520;SDS011;9390;51.244;6.982;2023-02-28T06:10:53;14.48;;;5.07;;
18520;SDS011;9390;51.244;6.982;2023-02-28T06:13:24;11.73;;;4.63;;
18520;SDS011;9390;51.244;6.982;2023-02-28T06:15:56;13.65;;;4.63;;
18520;SDS011;9390;51.244;6.982;2023-02-28T06:18:27;11.30;;;5.78;;
18520;SDS011;9390;51.244;6.982;2023-02-28T06:20:59;13.88;;;4.95;;
18520;SDS011;9390;51.244;6.982;2023-02-28T06:23:30;16.90;;;6.25;;
18520;SDS011;9390;51.244;6.982;2023-02-28T06:26:03;20.23;;;8.10;;
18520;SDS011;9390;51.244;6.982;2023-02-28T06:28:35;22.35;;;5.82;;
18520;SDS011;9390;51.244;6.982;2023-02-28T06:31:07;10.75;;;4.85;;
18520;SDS011;9390;51.244;6.982;2023-02-28T06:33:39;23.52;;;8.05;;
18520;SDS011;9390;51.244;6.982;2023-02-28T06:36:11;17.10;;;7.53;;
18520;SDS011;9390;51.244;6.982;2023-02-28T06:38:45;13.88;;;5.80;;
18520;SDS011;9390;51.244;6.982;2023-02-28T06:41:23;19.38;;;6.55;;
18520;SDS011;9390;51.244;6.982;2023-02-28T06:43:55;16.65;;;6.80;;
18520;SDS011;9390;51.244;6.982;2023-02-28T06:46:27;12.65;;;5.60;;
18520;SDS011;9390;51.244;6.982;2023-02-28T06:48:59;10.95;;;5.85;;
18520;SDS011;9390;51.244;6.982;2023-02-28T06:51:31;13.70;;;6.63;;
18520;SDS011;9390;51.244;6.982;2023-02-28T06:54:03;13.35;;;6.03;;
18520;SDS011;9390;51.244;6.982;2023-02-28T06:56:37;17.20;;;6.25;;
18520;SDS011;9390;51.244;6.982;2023-02-28T06:59:08;15.52;;;5.88;;
18520;SDS011;9390;51.244;6.982;2023-02-28T07:01:40;20.13;;;7.32;;
18520;SDS011;9390;51.244;6.982;2023-02-28T07:04:12;18.80;;;7.68;;
18520;SDS011;9390;51.244;6.982;2023-02-28T07:06:44;13.38;;;6.13;;
18520;SDS011;9390;51.244;6.982;2023-02-28T07:09:15;13.13;;;5.80;;
18520;SDS011;9390;51.244;6.982;2023-02-28T07:11:50;19.30;;;6.47;;
18520;SDS011;9390;51.244;6.982;2023-02-28T07:14:22;22.25;;;8.73;;
18520;SDS011;9390;51.244;6.982;2023-02-28T07:16:53;16.98;;;6.20;;
18520;SDS011;9390;51.244;6.982;2023-02-28T07:19:27;15.13;;;5.38;;
18520;SDS011;9390;51.244;6.982;2023-02-28T07:21:59;13.98;;;5.13;;
18520;SDS011;9390;51.244;6.982;2023-02-28T07:24:32;11.18;;;4.88;;
18520;SDS011;9390;51.244;6.982;2023-02-28T07:27:06;9.98;;;4.78;;
18520;SDS011;9390;51.244;6.982;2023-02-28T07:29:37;12.07;;;5.22;;
18520;SDS011;9390;51.244;6.982;2023-02-28T07:32:09;16.67;;;5.72;;
18520;SDS011;9390;51.244;6.982;2023-02-28T07:34:41;9.45;;;4.20;;
18520;SDS011;9390;51.244;6.982;2023-02-28T07:37:12;10.48;;;5.70;;
18520;SDS011;9390;51.244;6.982;2023-02-28T07:39:44;8.63;;;4.45;;
18520;SDS011;9390;51.244;6.982;2023-02-28T07:42:17;13.20;;;5.03;;
18520;SDS011;9390;51.244;6.982;2023-02-28T07:44:49;9.15;;;4.43;;
18520;SDS011;9390;51.244;6.982;2023-02-28T07:47:21;12.30;;;4.93;;
18520;SDS011;9390;51.244;6.982;2023-02-28T07:49:53;12.73;;;5.55;;
18520;SDS011;9390;51.244;6.982;2023-02-28T07:52:25;8.77;;;4.35;;
18520;SDS011;9390;51.244;6.982;2023-02-28T07:54:56;8.02;;;4.20;;
18520;SDS011;9390;51.244;6.982;2023-02-28T07:57:29;10.65;;;4.45;;
18520;SDS011;9390;51.244;6.982;2023-02-28T08:00:01;12.27;;;4.30;;
18520;SDS011;9390;51.244;6.982;2023-02-28T08:02:33;7.35;;;4.00;;
18520;SDS011;9390;51.244;6.982;2023-02-28T08:05:05;6.22;;;3.78;;
18520;SDS011;9390;51.244;6.982;2023-02-28T08:07:37;8.10;;;3.70;;
18520;SDS011;9390;51.244;6.982;2023-02-28T08:10:09;8.15;;;3.72;;
18520;SDS011;9390;51.244;6.982;2023-02-28T08:12:43;7.07;;;3.60;;
18520;SDS011;9390;51.244;6.982;2023-02-28T08:15:14;8.90;;;4.28;;
18520;SDS011;9390;51.244;6.982;2023-02-28T08:17:48;12.43;;;3.70;;
18520;SDS011;9390;51.244;6.982;2023-02-28T08:20:20;7.53;;;3.40;;
18520;SDS011;9390;51.244;6.982;2023-02-28T08:22:51;6.85;;;3.30;;
18520;SDS011;9390;51.244;6.982;2023-02-28T08:25:23;7.55;;;3.58;;
18520;SDS011;9390;51.244;6.982;2023-02-28T08:27:56;7.53;;;3.30;;
18520;SDS011;9390;51.244;6.982;2023-02-28T08:30:28;7.38;;;3.33;;
18520;SDS011;9390;51.244;6.982;2023-02-28T08:32:59;7.20;;;3.65;;
18520;SDS011;9390;51.244;6.982;2023-02-28T08:35:31;6.75;;;3.10;;
18520;SDS011;9390;51.244;6.982;2023-02-28T08:38:03;7.60;;;3.50;;
18520;SDS011;9390;51.244;6.982;2023-02-28T08:40:34;7.70;;;3.20;;
18520;SDS011;9390;51.244;6.982;2023-02-28T08:43:07;6.50;;;2.53;;
18520;SDS011;9390;51.244;6.982;2023-02-28T08:45:39;6.93;;;2.88;;
18520;SDS011;9390;51.244;6.982;2023-02-28T08:48:11;8.25;;;2.72;;
18520;SDS011;9390;51.244;6.982;2023-02-28T08:50:43;5.73;;;2.60;;
18520;SDS011;9390;51.244;6.982;2023-02-28T08:53:15;8.50;;;3.10;;
18520;SDS011;9390;51.244;6.982;2023-02-28T08:55:46;5.78;;;2.42;;
18520;SDS011;9390;51.244;6.982;2023-02-28T08:58:22;8.98;;;3.25;;
18520;SDS011;9390;51.244;6.982;2023-02-28T09:00:53;5.97;;;2.42;;
18520;SDS011;9390;51.244;6.982;2023-02-28T09:03:25;4.82;;;2.40;;
18520;SDS011;9390;51.244;6.982;2023-02-28T09:05:57;7.78;;;2.58;;
18520;SDS011;9390;51.244;6.982;2023-02-28T09:08:30;6.28;;;2.53;;
18520;SDS011;9390;51.244;6.982;2023-02-28T09:11:02;7.68;;;3.13;;
18520;SDS011;9390;51.244;6.982;2023-02-28T09:13:35;8.23;;;2.60;;
18520;SDS011;9390;51.244;6.982;2023-02-28T09:16:08;7.70;;;2.50;;
18520;SDS011;9390;51.244;6.982;2023-02-28T09:18:41;5.65;;;2.97;;
18520;SDS011;9390;51.244;6.982;2023-02-28T09:21:14;7.25;;;2.72;;
18520;SDS011;9390;51.244;6.982;2023-02-28T09:23:47;5.00;;;2.40;;
18520;SDS011;9390;51.244;6.982;2023-02-28T09:28:53;6.55;;;2.70;;
18520;SDS011;9390;51.244;6.982;2023-02-28T09:33:58;5.32;;;2.25;;
18520;SDS011;9390;51.244;6.982;2023-02-28T09:36:29;8.35;;;2.40;;
18520;SDS011;9390;51.244;6.982;2023-02-28T09:39:01;4.43;;;2.28;;
18520;SDS011;9390;51.244;6.982;2023-02-28T09:41:36;5.40;;;2.30;;
18520;SDS011;9390;51.244;6.982;2023-02-28T09:44:19;4.10;;;2.20;;
18520;SDS011;9390;51.244;6.982;2023-02-28T09:46:57;7.85;;;2.65;;
18520;SDS011;9390;51.244;6.982;2023-02-28T09:49:32;4.07;;;2.35;;
18520;SDS011;9390;51.244;6.982;2023-02-28T09:52:09;6.70;;;2.60;;
18520;SDS011;9390;51.244;6.982;2023-02-28T09:54:42;7.47;;;2.80;;
18520;SDS011;9390;51.244;6.982;2023-02-28T09:57:14;5.50;;;2.20;;
18520;SDS011;9390;51.244;6.982;2023-02-28T09:59:52;8.02;;;2.35;;
18520;SDS011;9390;51.244;6.982;2023-02-28T10:02:38;5.07;;;2.17;;
18520;SDS011;9390;51.244;6.982;2023-02-28T10:05:17;6.40;;;2.45;;
18520;SDS011;9390;51.244;6.982;2023-02-28T10:10:26;16.63;;;5.35;;
18520;SDS011;9390;51.244;6.982;2023-02-28T10:13:00;7.28;;;2.80;;
18520;SDS011;9390;51.244;6.982;2023-02-28T10:15:35;7.28;;;2.53;;
18520;SDS011;9390;51.244;6.982;2023-02-28T10:18:09;5.57;;;2.78;;
18520;SDS011;9390;51.244;6.982;2023-02-28T10:20:42;10.00;;;2.95;;
18520;SDS011;9390;51.244;6.982;2023-02-28T10:23:16;7.95;;;3.17;;
18520;SDS011;9390;51.244;6.982;2023-02-28T10:25:52;5.75;;;2.50;;
18520;SDS011;9390;51.244;6.982;2023-02-28T10:28:25;4.03;;;2.10;;
18520;SDS011;9390;51.244;6.982;2023-02-28T10:30:59;5.97;;;2.22;;
18520;SDS011;9390;51.244;6.982;2023-02-28T10:33:31;4.13;;;1.83;;
18520;SDS011;9390;51.244;6.982;2023-02-28T10:36:04;5.43;;;2.00;;
18520;SDS011;9390;51.244;6.982;2023-02-28T10:38:38;4.20;;;1.98;;
18520;SDS011;9390;51.244;6.982;2023-02-28T10:41:11;5.32;;;1.90;;
18520;SDS011;9390;51.244;6.982;2023-02-28T10:43:44;7.10;;;2.28;;
18520;SDS011;9390;51.244;6.982;2023-02-28T10:46:18;5.65;;;2.20;;
18520;SDS011;9390;51.244;6.982;2023-02-28T10:49:00;5.10;;;2.60;;
18520;SDS011;9390;51.244;6.982;2023-02-28T10:51:34;8.77;;;2.38;;
18520;SDS011;9390;51.244;6.982;2023-02-28T10:54:14;6.85;;;2.33;;
18520;SDS011;9390;51.244;6.982;2023-02-28T10:56:59;16.33;;;3.92;;
18520;SDS011;9390;51.244;6.982;2023-02-28T10:59:36;8.75;;;3.40;;
18520;SDS011;9390;51.244;6.982;2023-02-28T11:07:59;6.80;;;2.38;;
18520;SDS011;9390;51.244;6.982;2023-02-28T11:10:35;5.75;;;2.30;;
18520;SDS011;9390;51.244;6.982;2023-02-28T11:13:12;6.50;;;2.50;;
18520;SDS011;9390;51.244;6.982;2023-02-28T11:15:50;18.05;;;4.10;;
18520;SDS011;9390;51.244;6.982;2023-02-28T11:18:24;5.20;;;2.65;;
18520;SDS011;9390;51.244;6.982;2023-02-28T11:20:59;4.85;;;2.20;;
18520;SDS011;9390;51.244;6.982;2023-02-28T11:23:32;7.03;;;2.53;;
18520;SDS011;9390;51.244;6.982;2023-02-28T11:26:06;5.38;;;2.65;;
18520;SDS011;9390;51.244;6.982;2023-02-28T11:28:40;5.35;;;2.30;;
18520;SDS011;9390;51.244;6.982;2023-02-28T11:31:16;9.30;;;2.00;;
18520;SDS011;9390;51.244;6.982;2023-02-28T11:33:51;5.25;;;2.22;;
18520;SDS011;9390;51.244;6.982;2023-02-28T11:36:24;5.28;;;2.20;;
18520;SDS011;9390;51.244;6.982;2023-02-28T11:39:03;7.13;;;2.50;;
18520;SDS011;9390;51.244;6.982;2023-02-28T11:41:45;6.45;;;2.47;;
18520;SDS011;9390;51.244;6.982;2023-02-28T11:44:28;5.80;;;2.38;;
18520;SDS011;9390;51.244;6.982;2023-02-28T11:47:09;4.60;;;2.30;;
18520;SDS011;9390;51.244;6.982;2023-02-28T11:49:47;5.18;;;2.40;;
18520;SDS011;9390;51.244;6.982;2023-02-28T11:52:26;4.40;;;2.35;;
18520;SDS011;9390;51.244;6.982;2023-02-28T11:55:03;5.82;;;2.50;;
18520;SDS011;9390;51.244;6.982;2023-02-28T11:57:48;5.85;;;2.50;;
18520;SDS011;9390;51.244;6.982;2023-02-28T12:00:30;17.55;;;6.05;;
18520;SDS011;9390;51.244;6.982;2023-02-28T12:03:13;7.55;;;3.53;;
18520;SDS011;9390;51.244;6.982;2023-02-28T12:05:52;8.02;;;3.15;;
18520;SDS011;9390;51.244;6.982;2023-02-28T12:08:34;5.78;;;2.67;;
18520;SDS011;9390;51.244;6.982;2023-02-28T12:11:16;8.60;;;4.13;;
18520;SDS011;9390;51.244;6.982;2023-02-28T12:13:56;15.10;;;5.30;;
18520;SDS011;9390;51.244;6.982;2023-02-28T12:16:40;9.88;;;3.15;;
18520;SDS011;9390;51.244;6.982;2023-02-28T12:19:19;15.38;;;5.05;;
18520;SDS011;9390;51.244;6.982;2023-02-28T12:28:01;13.88;;;4.18;;
18520;SDS011;9390;51.244;6.982;2023-02-28T12:30:34;10.88;;;3.25;;
18520;SDS011;9390;51.244;6.982;2023-02-28T12:35:41;7.55;;;3.63;;
18520;SDS011;9390;51.244;6.982;2023-02-28T12:38:18;5.40;;;2.55;;
18520;SDS011;9390;51.244;6.982;2023-02-28T12:40:55;8.50;;;3.25;;
18520;SDS011;9390;51.244;6.982;2023-02-28T12:43:31;7.47;;;3.40;;
18520;SDS011;9390;51.244;6.982;2023-02-28T12:46:06;4.80;;;2.67;;
18520;SDS011;9390;51.244;6.982;2023-02-28T12:48:40;9.20;;;3.78;;
18520;SDS011;9390;51.244;6.982;2023-02-28T12:51:13;7.97;;;3.03;;
18520;SDS011;9390;51.244;6.982;2023-02-28T12:56:24;7.57;;;3.00;;
18520;SDS011;9390;51.244;6.982;2023-02-28T12:59:05;8.82;;;3.33;;
18520;SDS011;9390;51.244;6.982;2023-02-28T13:01:54;7.15;;;2.85;;
18520;SDS011;9390;51.244;6.982;2023-02-28T13:04:46;4.82;;;2.63;;
18520;SDS011;9390;51.244;6.982;2023-02-28T13:10:27;7.38;;;3.00;;
18520;SDS011;9390;51.244;6.982;2023-02-28T13:13:14;11.15;;;4.13;;
18520;SDS011;9390;51.244;6.982;2023-02-28T13:15:58;8.50;;;2.70;;
18520;SDS011;9390;51.244;6.982;2023-02-28T13:18:32;6.22;;;2.35;;
18520;SDS011;9390;51.244;6.982;2023-02-28T13:21:08;6.22;;;2.97;;
18520;SDS011;9390;51.244;6.982;2023-02-28T13:23:56;8.77;;;3.30;;
18520;SDS011;9390;51.244;6.982;2023-02-28T13:29:40;10.43;;;3.25;;
18520;SDS011;9390;51.244;6.982;2023-02-28T13:38:25;12.57;;;4.05;;
18520;SDS011;9390;51.244;6.982;2023-02-28T13:44:16;8.68;;;3.17;;
18520;SDS011;9390;51.244;6.982;2023-02-28T13:49:52;6.93;;;3.05;;
18520;SDS011;9390;51.244;6.982;2023-02-28T13:52:24;8.75;;;3.10;;
18520;SDS011;9390;51.244;6.982;2023-02-28T13:54:57;8.13;;;3.40;;
18520;SDS011;9390;51.244;6.982;2023-02-28T13:57:53;7.47;;;2.63;;
18520;SDS011;9390;51.244;6.982;2023-02-28T14:00:35;9.27;;;3.38;;
18520;SDS011;9390;51.244;6.982;2023-02-28T14:03:22;8.23;;;3.75;;
18520;SDS011;9390;51.244;6.982;2023-02-28T14:06:15;9.43;;;3.58;;
18520;SDS011;9390;51.244;6.982;2023-02-28T14:08:53;8.00;;;3.10;;
18520;SDS011;9390;51.244;6.982;2023-02-28T14:11:30;12.35;;;3.95;;
18520;SDS011;9390;51.244;6.982;2023-02-28T14:14:04;10.32;;;4.53;;
18520;SDS011;9390;51.244;6.982;2023-02-28T14:16:39;9.00;;;3.70;;
18520;SDS011;9390;51.244;6.982;2023-02-28T14:19:13;13.63;;;4.55;;
18520;SDS011;9390;51.244;6.982;2023-02-28T14:21:50;6.63;;;3.40;;
18520;SDS011;9390;51.244;6.982;2023-02-28T14:24:39;7.88;;;3.50;;
18520;SDS011;9390;51.244;6.982;2023-02-28T14:30:17;9.00;;;3.40;;
18520;SDS011;9390;51.244;6.982;2023-02-28T14:33:04;8.02;;;3.63;;
18520;SDS011;9390;51.244;6.982;2023-02-28T14:35:49;9.95;;;3.40;;
18520;SDS011;9390;51.244;6.982;2023-02-28T14:38:27;13.10;;;4.28;;
18520;SDS011;9390;51.244;6.982;2023-02-28T14:41:04;17.92;;;5.43;;
18520;SDS011;9390;51.244;6.982;2023-02-28T14:43:47;7.95;;;3.83;;
18520;SDS011;9390;51.244;6.982;2023-02-28T14:46:20;12.57;;;4.70;;
18520;SDS011;9390;51.244;6.982;2023-02-28T14:48:52;8.37;;;3.83;;
18520;SDS011;9390;51.244;6.982;2023-02-28T14:51:25;9.13;;;3.58;;
18520;SDS011;9390;51.244;6.982;2023-02-28T14:53:57;22.13;;;5.97;;
18520;SDS011;9390;51.244;6.982;2023-02-28T14:56:30;8.80;;;3.97;;
18520;SDS011;9390;51.244;6.982;2023-02-28T14:59:17;8.75;;;3.88;;
18520;SDS011;9390;51.244;6.982;2023-02-28T15:02:14;11.02;;;4.13;;
18520;SDS011;9390;51.244;6.982;2023-02-28T15:04:53;9.68;;;3.80;;
18520;SDS011;9390;51.244;6.982;2023-02-28T15:07:28;10.52;;;3.67;;
18520;SDS011;9390;51.244;6.982;2023-02-28T15:10:14;26.50;;;5.15;;
18520;SDS011;9390;51.244;6.982;2023-02-28T15:12:51;12.75;;;4.25;;
18520;SDS011;9390;51.244;6.982;2023-02-28T15:15:24;14.32;;;3.95;;
18520;SDS011;9390;51.244;6.982;2023-02-28T15:18:14;8.02;;;3.78;;
18520;SDS011;9390;51.244;6.982;2023-02-28T15:20:49;8.77;;;3.78;;
18520;SDS011;9390;51.244;6.982;2023-02-28T15:23:23;8.77;;;3.55;;
18520;SDS011;9390;51.244;6.982;2023-02-28T15:25:55;6.68;;;3.53;;
18520;SDS011;9390;51.244;6.982;2023-02-28T15:28:27;18.63;;;4.47;;
18520;SDS011;9390;51.244;6.982;2023-02-28T15:30:59;8.73;;;3.40;;
18520;SDS011;9390;51.244;6.982;2023-02-28T15:33:32;10.57;;;4.32;;
18520;SDS011;9390;51.244;6.982;2023-02-28T15:36:05;15.00;;;5.15;;
18520;SDS011;9390;51.244;6.982;2023-02-28T15:38:39;10.23;;;4.25;;
18520;SDS011;9390;51.244;6.982;2023-02-28T15:41:21;9.90;;;4.00;;
18520;SDS011;9390;51.244;6.982;2023-02-28T15:46:53;11.48;;;4.40;;
18520;SDS011;9390;51.244;6.982;2023-02-28T15:49:26;12.00;;;4.63;;
18520;SDS011;9390;51.244;6.982;2023-02-28T15:51:58;11.27;;;4.00;;
18520;SDS011;9390;51.244;6.982;2023-02-28T15:54:33;15.40;;;5.47;;
18520;SDS011;9390;51.244;6.982;2023-02-28T15:57:06;16.13;;;4.75;;
18520;SDS011;9390;51.244;6.982;2023-02-28T16:02:13;31.15;;;4.90;;
18520;SDS011;9390;51.244;6.982;2023-02-28T16:04:54;7.45;;;4.03;;
18520;SDS011;9390;51.244;6.982;2023-02-28T16:07:29;10.85;;;4.53;;
18520;SDS011;9390;51.244;6.982;2023-02-28T16:10:02;13.45;;;4.43;;
18520;SDS011;9390;51.244;6.982;2023-02-28T16:12:35;14.52;;;5.03;;
18520;SDS011;9390;51.244;6.982;2023-02-28T16:15:14;14.35;;;4.65;;
18520;SDS011;9390;51.244;6.982;2023-02-28T16:17:49;14.77;;;4.85;;
18520;SDS011;9390;51.244;6.982;2023-02-28T16:20:21;14.48;;;5.80;;
18520;SDS011;9390;51.244;6.982;2023-02-28T16:22:53;12.02;;;5.03;;
18520;SDS011;9390;51.244;6.982;2023-02-28T16:25:26;12.45;;;4.80;;
18520;SDS011;9390;51.244;6.982;2023-02-28T16:28:00;19.23;;;7.18;;
18520;SDS011;9390;51.244;6.982;2023-02-28T16:30:32;20.98;;;7.00;;
18520;SDS011;9390;51.244;6.982;2023-02-28T16:33:03;11.57;;;5.10;;
18520;SDS011;9390;51.244;6.982;2023-02-28T16:35:35;14.73;;;5.68;;